createdAt,value
2022-07-29T00:01:45.754Z,4.60
2022-07-29T00:04:15.012Z,4.10
2022-07-29T00:06:44.118Z,4.43
2022-07-29T00:09:12.976Z,4.80
2022-07-29T00:11:42.280Z,4.55
2022-07-29T00:14:11.516Z,4.47
2022-07-29T00:16:40.513Z,4.30
2022-07-29T00:19:10.864Z,4.57
2022-07-29T00:21:39.980Z,4.97
2022-07-29T00:24:08.997Z,5.30
2022-07-29T00:26:37.903Z,4.97
2022-07-29T00:29:32.985Z,4.78
2022-07-29T00:31:56.140Z,4.68
2022-07-29T00:34:43.890Z,4.88
2022-07-29T00:37:12.950Z,4.50
2022-07-29T00:39:41.916Z,4.50
2022-07-29T00:42:11.029Z,4.30
2022-07-29T00:44:40.358Z,4.97
2022-07-29T00:47:27.738Z,4.70
2022-07-29T00:49:58.251Z,5.10
2022-07-29T00:52:27.236Z,5.13
2022-07-29T00:54:56.082Z,4.93
2022-07-29T00:57:25.007Z,5.38
2022-07-29T00:59:53.871Z,4.97
2022-07-29T01:02:22.897Z,4.72
2022-07-29T01:04:51.856Z,4.80
2022-07-29T01:07:22.305Z,5.20
2022-07-29T01:09:51.308Z,4.70
2022-07-29T01:12:20.468Z,4.93
2022-07-29T01:14:49.467Z,4.68
2022-07-29T01:17:20.286Z,4.50
2022-07-29T01:19:51.588Z,4.72
2022-07-29T01:22:27.755Z,4.93
2022-07-29T01:25:14.276Z,4.68
2022-07-29T01:27:46.585Z,4.55
2022-07-29T01:30:17.029Z,4.80
2022-07-29T01:32:46.039Z,4.78
2022-07-29T01:35:17.320Z,5.10
2022-07-29T01:37:46.740Z,4.95
2022-07-29T01:40:19.456Z,5.00
2022-07-29T01:43:08.714Z,4.93
2022-07-29T01:45:39.765Z,5.90
2022-07-29T01:48:09.272Z,5.13
2022-07-29T01:50:38.776Z,5.78
2022-07-29T01:53:08.678Z,5.50
2022-07-29T01:55:37.665Z,5.30
2022-07-29T01:58:07.201Z,6.03
2022-07-29T02:00:36.075Z,5.95
2022-07-29T02:03:06.748Z,5.40
2022-07-29T02:05:35.733Z,5.93
2022-07-29T02:08:04.870Z,5.70
2022-07-29T02:10:34.259Z,6.10
2022-07-29T02:13:03.367Z,5.82
2022-07-29T02:15:33.552Z,5.70
2022-07-29T02:18:03.559Z,5.72
2022-07-29T02:20:33.870Z,6.77
2022-07-29T02:23:02.800Z,5.88
2022-07-29T02:25:37.196Z,5.72
2022-07-29T02:28:07.858Z,5.50
2022-07-29T02:30:37.709Z,6.60
2022-07-29T02:33:06.623Z,6.33
2022-07-29T02:35:37.004Z,5.72
2022-07-29T02:38:23.107Z,6.72
2022-07-29T02:40:52.083Z,6.38
2022-07-29T02:43:20.968Z,6.80
2022-07-29T02:45:51.852Z,6.23
2022-07-29T02:48:21.046Z,6.20
2022-07-29T02:50:51.532Z,6.88
2022-07-29T02:53:20.714Z,7.05
2022-07-29T02:55:51.395Z,6.63
2022-07-29T02:58:22.264Z,6.17
2022-07-29T03:01:11.324Z,6.82
2022-07-29T03:03:40.413Z,6.50
2022-07-29T03:06:10.747Z,6.47
2022-07-29T03:09:00.113Z,6.60
2022-07-29T03:11:46.062Z,7.13
2022-07-29T03:14:18.844Z,6.63
2022-07-29T03:16:48.171Z,7.20
2022-07-29T03:19:17.468Z,6.70
2022-07-29T03:21:48.156Z,6.65
2022-07-29T03:24:29.894Z,7.00
2022-07-29T03:26:59.151Z,6.80
2022-07-29T03:29:34.083Z,7.32
2022-07-29T03:32:08.234Z,7.03
2022-07-29T03:34:38.056Z,7.85
2022-07-29T03:37:08.411Z,7.40
2022-07-29T03:39:39.314Z,7.05
2022-07-29T03:42:08.387Z,7.22
2022-07-29T03:44:37.460Z,7.28
2022-07-29T03:47:35.527Z,7.35
2022-07-29T03:50:16.505Z,7.03
2022-07-29T03:52:46.777Z,7.07
2022-07-29T03:55:15.939Z,6.65
2022-07-29T03:57:44.827Z,7.38
2022-07-29T04:00:14.190Z,6.85
2022-07-29T04:02:46.311Z,6.60
2022-07-29T04:05:33.713Z,6.47
2022-07-29T04:08:04.161Z,7.00
2022-07-29T04:10:33.990Z,20.73
2022-07-29T04:13:03.198Z,8.82
2022-07-29T04:15:32.445Z,7.10
2022-07-29T04:18:01.379Z,7.10
2022-07-29T04:20:30.343Z,7.30
2022-07-29T04:22:59.341Z,7.50
2022-07-29T04:25:29.707Z,7.00
2022-07-29T04:28:04.425Z,6.57
2022-07-29T04:30:33.649Z,6.45
2022-07-29T04:33:03.045Z,6.20
2022-07-29T04:35:38.261Z,6.38
2022-07-29T04:38:07.914Z,6.35
2022-07-29T04:40:47.198Z,6.00
2022-07-29T04:43:22.443Z,5.95
2022-07-29T04:45:52.805Z,6.22
2022-07-29T04:48:26.671Z,5.72
2022-07-29T04:50:57.845Z,6.13
2022-07-29T04:53:27.395Z,9.33
2022-07-29T04:55:57.808Z,7.82
2022-07-29T04:58:26.685Z,7.68
2022-07-29T05:00:55.610Z,6.82
2022-07-29T05:03:24.415Z,6.18
2022-07-29T05:05:53.410Z,5.73
2022-07-29T05:08:22.287Z,6.40
2022-07-29T05:11:13.514Z,6.13
2022-07-29T05:13:45.224Z,6.10
2022-07-29T05:16:15.574Z,6.55
2022-07-29T05:18:44.476Z,6.20
2022-07-29T05:21:13.377Z,5.60
2022-07-29T05:23:42.306Z,5.72
2022-07-29T05:26:13.286Z,6.00
2022-07-29T05:28:42.174Z,6.00
2022-07-29T05:31:11.028Z,6.20
2022-07-29T05:33:40.053Z,6.57
2022-07-29T05:36:08.999Z,6.10
2022-07-29T05:38:38.064Z,5.50
2022-07-29T05:41:07.057Z,5.47
2022-07-29T05:43:37.476Z,6.33
2022-07-29T05:46:06.523Z,5.78
2022-07-29T05:48:35.527Z,6.32
2022-07-29T05:51:04.477Z,5.95
2022-07-29T05:53:33.866Z,6.43
2022-07-29T05:56:05.395Z,5.80
2022-07-29T05:58:34.755Z,6.25
2022-07-29T06:01:05.151Z,6.30
2022-07-29T06:03:34.102Z,6.10
2022-07-29T06:06:03.191Z,6.18
2022-07-29T06:08:32.136Z,6.47
2022-07-29T06:11:01.018Z,6.07
2022-07-29T06:13:29.992Z,6.40
2022-07-29T06:15:59.029Z,6.65
2022-07-29T06:18:30.087Z,6.45
2022-07-29T06:20:59.347Z,6.93
2022-07-29T06:23:28.292Z,6.15
2022-07-29T06:26:15.441Z,5.93
2022-07-29T06:28:44.343Z,6.13
2022-07-29T06:31:13.230Z,6.38
2022-07-29T06:34:02.313Z,5.70
2022-07-29T06:36:32.417Z,6.72
2022-07-29T06:39:01.246Z,5.97
2022-07-29T06:41:32.908Z,5.60
2022-07-29T06:44:08.847Z,6.68
2022-07-29T06:46:37.983Z,6.17
2022-07-29T06:49:08.410Z,6.20
2022-07-29T06:51:37.342Z,6.78
2022-07-29T06:54:06.940Z,6.20
2022-07-29T06:56:39.326Z,6.57
2022-07-29T06:59:08.699Z,6.60
2022-07-29T07:01:37.920Z,6.82
2022-07-29T07:04:09.992Z,7.22
2022-07-29T07:06:39.032Z,6.28
2022-07-29T07:09:07.923Z,6.43
2022-07-29T07:11:37.002Z,6.07
2022-07-29T07:14:05.910Z,6.32
2022-07-29T07:16:34.889Z,6.40
2022-07-29T07:19:03.815Z,6.32
2022-07-29T07:21:52.329Z,6.95
2022-07-29T07:24:21.285Z,7.40
2022-07-29T07:26:50.603Z,5.65
2022-07-29T07:29:19.767Z,5.93
2022-07-29T07:31:48.680Z,5.60
2022-07-29T07:34:17.971Z,6.00
2022-07-29T07:36:58.898Z,5.60
2022-07-29T07:39:28.349Z,5.13
2022-07-29T07:41:57.395Z,5.60
2022-07-29T07:44:26.283Z,5.18
2022-07-29T07:46:55.279Z,5.88
2022-07-29T07:49:24.215Z,5.10
2022-07-29T07:51:53.978Z,5.55
2022-07-29T07:54:24.374Z,5.38
2022-07-29T07:56:53.633Z,4.97
2022-07-29T07:59:22.524Z,5.20
2022-07-29T08:01:56.156Z,4.90
2022-07-29T08:04:28.360Z,4.97
2022-07-29T08:06:58.052Z,4.88
2022-07-29T08:09:30.070Z,5.10
2022-07-29T08:11:59.422Z,4.82
2022-07-29T08:14:28.277Z,5.20
2022-07-29T08:16:57.436Z,4.60
2022-07-29T08:19:26.302Z,4.70
2022-07-29T08:21:55.976Z,4.95
2022-07-29T08:24:54.877Z,4.70
2022-07-29T08:27:42.952Z,5.03
2022-07-29T08:30:12.581Z,5.20
2022-07-29T08:32:53.761Z,4.75
2022-07-29T08:35:23.932Z,5.43
2022-07-29T08:37:52.956Z,4.80
2022-07-29T08:40:32.574Z,4.73
2022-07-29T08:43:06.512Z,4.95
2022-07-29T08:45:39.225Z,5.00
2022-07-29T08:48:14.348Z,4.93
2022-07-29T08:50:43.533Z,4.32
2022-07-29T08:53:16.125Z,4.43
2022-07-29T08:55:45.273Z,4.85
2022-07-29T08:58:15.966Z,4.22
2022-07-29T09:01:04.023Z,5.03
2022-07-29T09:03:36.761Z,4.53
2022-07-29T09:06:05.771Z,3.97
2022-07-29T09:08:34.903Z,3.95
2022-07-29T09:11:05.595Z,4.78
2022-07-29T09:13:36.184Z,4.53
2022-07-29T09:16:09.350Z,4.18
2022-07-29T09:18:39.113Z,3.70
2022-07-29T09:21:25.308Z,3.83
2022-07-29T09:24:03.714Z,4.22
2022-07-29T09:26:32.995Z,4.22
2022-07-29T09:29:03.712Z,4.60
2022-07-29T09:31:35.547Z,4.43
2022-07-29T09:34:04.581Z,4.72
2022-07-29T09:36:33.561Z,4.05
2022-07-29T09:39:02.846Z,4.53
2022-07-29T09:41:31.725Z,4.40
2022-07-29T09:44:00.856Z,4.00
2022-07-29T09:46:31.389Z,4.53
2022-07-29T09:49:10.253Z,4.30
2022-07-29T09:51:39.385Z,4.90
2022-07-29T09:54:23.102Z,4.43
2022-07-29T09:56:52.335Z,4.07
2022-07-29T09:59:23.579Z,4.53
2022-07-29T10:01:54.346Z,4.55
2022-07-29T10:04:23.526Z,3.78
2022-07-29T10:07:04.430Z,4.03
2022-07-29T10:09:34.570Z,3.90
2022-07-29T10:12:10.490Z,3.95
2022-07-29T10:14:39.605Z,3.75
2022-07-29T10:17:10.478Z,4.07
2022-07-29T10:19:39.569Z,4.28
2022-07-29T10:22:08.732Z,4.37
2022-07-29T10:24:38.481Z,4.80
2022-07-29T10:27:07.978Z,4.05
2022-07-29T10:29:37.329Z,4.28
2022-07-29T10:32:12.668Z,4.30
2022-07-29T10:35:04.164Z,4.27
2022-07-29T10:37:36.293Z,4.40
2022-07-29T10:40:27.679Z,4.57
2022-07-29T10:42:57.356Z,4.25
2022-07-29T10:45:26.497Z,4.55
2022-07-29T10:48:07.999Z,4.80
2022-07-29T10:50:56.621Z,4.78
2022-07-29T10:53:26.002Z,4.93
2022-07-29T10:56:06.230Z,5.25
2022-07-29T10:58:35.671Z,5.20
2022-07-29T11:01:04.535Z,4.50
2022-07-29T11:03:53.743Z,5.22
2022-07-29T11:06:28.126Z,4.43
2022-07-29T11:09:17.840Z,5.20
2022-07-29T11:12:00.551Z,5.05
2022-07-29T11:14:46.790Z,5.33
2022-07-29T11:17:16.187Z,4.75
2022-07-29T11:22:35.779Z,4.93
2022-07-29T11:25:17.110Z,5.20
2022-07-29T11:27:46.666Z,4.83
2022-07-29T11:30:17.011Z,5.40
2022-07-29T11:32:48.458Z,5.13
2022-07-29T11:35:37.568Z,4.80
2022-07-29T11:38:28.106Z,4.60
2022-07-29T11:41:16.211Z,4.87
2022-07-29T11:43:50.660Z,4.57
2022-07-29T11:46:25.164Z,4.65
2022-07-29T11:48:54.259Z,5.05
2022-07-29T11:51:32.821Z,4.65
2022-07-29T11:54:05.329Z,4.70
2022-07-29T11:56:34.808Z,5.05
2022-07-29T11:59:08.463Z,4.80
2022-07-29T12:01:37.574Z,4.63
2022-07-29T12:04:06.848Z,5.20
2022-07-29T12:06:37.479Z,5.30
2022-07-29T12:09:11.320Z,4.93
2022-07-29T12:11:44.980Z,4.78
2022-07-29T12:14:29.180Z,4.72
2022-07-29T12:16:58.229Z,4.78
2022-07-29T12:19:27.650Z,5.17
2022-07-29T12:22:00.881Z,5.65
2022-07-29T12:24:49.866Z,5.47
2022-07-29T12:27:28.554Z,5.55
2022-07-29T12:29:58.974Z,5.22
2022-07-29T12:32:33.506Z,5.50
2022-07-29T12:35:02.662Z,5.63
2022-07-29T12:37:41.111Z,5.90
2022-07-29T12:40:12.148Z,5.50
2022-07-29T12:42:41.081Z,5.95
2022-07-29T12:45:10.280Z,5.70
2022-07-29T12:47:53.389Z,6.20
2022-07-29T12:50:26.260Z,5.70
2022-07-29T12:52:57.079Z,5.57
2022-07-29T12:55:41.291Z,6.13
2022-07-29T12:58:10.209Z,6.57
2022-07-29T13:00:39.135Z,5.95
2022-07-29T13:03:26.514Z,6.25
2022-07-29T13:05:56.234Z,5.88
2022-07-29T13:08:26.553Z,6.00
2022-07-29T13:10:57.142Z,5.60
2022-07-29T13:13:25.999Z,5.85
2022-07-29T13:16:07.873Z,5.10
2022-07-29T13:19:10.463Z,5.65
2022-07-29T13:21:39.638Z,5.93
2022-07-29T13:24:10.362Z,5.90
2022-07-29T13:26:57.912Z,5.95
2022-07-29T13:29:31.381Z,6.13
2022-07-29T13:32:01.178Z,5.72
2022-07-29T13:34:30.225Z,5.55
2022-07-29T13:36:59.129Z,6.30
2022-07-29T13:39:29.410Z,5.88
2022-07-29T13:41:58.894Z,5.68
2022-07-29T13:44:29.269Z,6.30
2022-07-29T13:47:00.306Z,5.75
2022-07-29T13:49:29.697Z,5.80
2022-07-29T13:51:58.797Z,5.70
2022-07-29T13:54:29.844Z,5.97
2022-07-29T13:56:58.934Z,6.15
2022-07-29T13:59:27.874Z,5.70
2022-07-29T14:01:57.005Z,6.20
2022-07-29T14:04:26.220Z,5.55
2022-07-29T14:06:55.068Z,5.85
2022-07-29T14:09:24.091Z,5.60
2022-07-29T14:11:54.584Z,5.78
2022-07-29T14:14:23.499Z,6.37
2022-07-29T14:16:52.591Z,6.70
2022-07-29T14:19:21.637Z,5.90
2022-07-29T14:21:50.593Z,6.18
2022-07-29T14:24:23.078Z,6.45
2022-07-29T14:26:54.336Z,6.40
2022-07-29T14:29:23.439Z,6.00
2022-07-29T14:32:07.638Z,7.25
2022-07-29T14:34:36.853Z,6.90
2022-07-29T14:37:07.100Z,6.75
2022-07-29T14:39:42.516Z,6.50
2022-07-29T14:42:14.370Z,6.22
2022-07-29T14:44:44.737Z,6.07
2022-07-29T14:47:13.696Z,5.90
2022-07-29T14:49:42.703Z,6.28
2022-07-29T14:52:11.715Z,6.00
2022-07-29T14:54:59.222Z,6.32
2022-07-29T14:57:29.771Z,6.57
2022-07-29T14:59:58.662Z,6.50
2022-07-29T15:02:45.814Z,6.65
2022-07-29T15:05:16.864Z,6.10
2022-07-29T15:07:45.750Z,6.63
2022-07-29T15:10:15.501Z,6.40
2022-07-29T15:12:45.940Z,5.85
2022-07-29T15:15:15.116Z,6.43
2022-07-29T15:17:44.139Z,6.73
2022-07-29T15:20:13.639Z,6.70
2022-07-29T15:22:44.214Z,6.22
2022-07-29T15:25:13.531Z,7.00
2022-07-29T15:27:42.401Z,6.55
2022-07-29T15:30:33.565Z,6.50
2022-07-29T15:33:03.633Z,6.82
2022-07-29T15:35:32.723Z,6.88
2022-07-29T15:38:02.393Z,7.78
2022-07-29T15:40:31.237Z,7.40
2022-07-29T15:43:06.981Z,7.50
2022-07-29T15:45:40.899Z,6.82
2022-07-29T15:48:10.327Z,7.05
2022-07-29T15:50:47.161Z,7.20
2022-07-29T15:53:16.583Z,7.60
2022-07-29T15:55:46.630Z,7.90
2022-07-29T15:58:15.590Z,8.30
2022-07-29T16:00:45.920Z,9.13
2022-07-29T16:03:15.062Z,8.20
2022-07-29T16:05:44.054Z,7.57
2022-07-29T16:08:13.066Z,8.57
2022-07-29T16:10:42.071Z,8.88
2022-07-29T16:13:10.990Z,7.72
2022-07-29T16:16:02.602Z,8.82
2022-07-29T16:18:31.885Z,8.38
2022-07-29T16:21:00.862Z,7.30
2022-07-29T16:23:29.955Z,8.55
2022-07-29T16:26:00.524Z,8.27
2022-07-29T16:28:30.021Z,7.57
2022-07-29T16:31:00.326Z,9.10
2022-07-29T16:33:30.407Z,9.60
2022-07-29T16:36:37.437Z,10.10
2022-07-29T16:39:06.799Z,10.30
2022-07-29T16:41:35.683Z,9.27
2022-07-29T16:44:23.146Z,9.27
2022-07-29T16:46:55.961Z,10.40
2022-07-29T16:49:25.332Z,10.30
2022-07-29T16:51:55.091Z,9.45
2022-07-29T16:54:24.010Z,9.43
2022-07-29T16:56:52.935Z,9.68
2022-07-29T16:59:21.947Z,10.33
2022-07-29T17:01:50.855Z,9.20
2022-07-29T17:04:21.303Z,10.05
2022-07-29T17:06:52.743Z,9.90
2022-07-29T17:09:21.700Z,9.95
2022-07-29T17:11:55.167Z,9.67
2022-07-29T17:14:42.807Z,8.93
2022-07-29T17:17:13.707Z,8.52
2022-07-29T17:19:46.106Z,9.40
2022-07-29T17:22:19.241Z,9.32
2022-07-29T17:24:48.685Z,8.53
2022-07-29T17:27:17.622Z,8.98
2022-07-29T17:29:46.566Z,8.88
2022-07-29T17:32:15.479Z,8.95
2022-07-29T17:35:04.121Z,8.32
2022-07-29T17:37:33.113Z,9.30
2022-07-29T17:40:01.984Z,8.43
2022-07-29T17:42:31.538Z,8.18
2022-07-29T17:45:00.428Z,8.45
2022-07-29T17:47:29.444Z,8.77
2022-07-29T17:49:58.321Z,8.90
2022-07-29T17:52:28.776Z,8.38
2022-07-29T17:54:57.644Z,8.60
2022-07-29T17:57:26.709Z,9.20
2022-07-29T17:59:55.647Z,8.70
2022-07-29T18:02:25.050Z,9.03
2022-07-29T18:04:55.518Z,8.50
2022-07-29T18:07:24.569Z,8.68
2022-07-29T18:10:00.046Z,9.13
2022-07-29T18:12:29.505Z,8.73
2022-07-29T18:14:58.364Z,8.87
2022-07-29T18:17:48.473Z,9.35
2022-07-29T18:20:16.348Z,9.13
2022-07-29T18:22:45.268Z,8.60
2022-07-29T18:25:15.697Z,9.05
2022-07-29T18:27:44.568Z,9.83
2022-07-29T18:30:15.259Z,9.07
2022-07-29T18:32:59.224Z,8.18
2022-07-29T18:35:33.295Z,8.70
2022-07-29T18:38:03.147Z,9.13
2022-07-29T18:40:52.426Z,9.27
2022-07-29T18:43:21.516Z,8.57
2022-07-29T18:45:51.068Z,8.60
2022-07-29T18:48:20.550Z,8.55
2022-07-29T18:50:50.234Z,8.65
2022-07-29T18:53:19.188Z,8.63
2022-07-29T18:55:48.132Z,8.70
2022-07-29T18:58:38.488Z,8.30
2022-07-29T19:01:07.437Z,8.98
2022-07-29T19:03:36.359Z,8.20
2022-07-29T19:06:05.594Z,8.67
2022-07-29T19:08:38.276Z,9.10
2022-07-29T19:11:07.113Z,8.75
2022-07-29T19:13:37.769Z,8.57
2022-07-29T19:16:07.009Z,8.05
2022-07-29T19:18:35.960Z,7.37
2022-07-29T19:21:04.818Z,8.27
2022-07-29T19:24:01.556Z,8.10
2022-07-29T19:26:22.819Z,8.10
2022-07-29T19:28:53.135Z,7.78
2022-07-29T19:31:22.167Z,8.63
2022-07-29T19:33:51.042Z,8.05
2022-07-29T19:36:20.143Z,7.97
2022-07-29T19:38:49.090Z,8.65
2022-07-29T19:41:18.116Z,8.20
2022-07-29T19:43:52.093Z,8.20
2022-07-29T19:46:23.540Z,9.18
2022-07-29T19:48:53.242Z,9.82
2022-07-29T19:51:22.750Z,9.82
2022-07-29T19:53:51.743Z,10.10
2022-07-29T19:56:20.771Z,9.07
2022-07-29T19:58:49.911Z,8.98
2022-07-29T20:01:21.035Z,9.48
2022-07-29T20:03:51.390Z,8.23
2022-07-29T20:06:20.306Z,8.35
2022-07-29T20:08:49.219Z,8.33
2022-07-29T20:11:18.288Z,7.97
2022-07-29T20:13:47.123Z,8.45
2022-07-29T20:16:16.077Z,7.88
2022-07-29T20:18:44.944Z,8.60
2022-07-29T20:21:34.263Z,8.37
2022-07-29T20:24:04.526Z,8.43
2022-07-29T20:26:33.407Z,8.20
2022-07-29T20:29:05.352Z,8.27
2022-07-29T20:31:34.340Z,8.60
2022-07-29T20:34:03.245Z,7.83
2022-07-29T20:36:33.668Z,8.93
2022-07-29T20:39:08.691Z,7.93
2022-07-29T20:41:55.958Z,8.27
2022-07-29T20:44:25.178Z,8.10
2022-07-29T20:46:54.117Z,8.03
2022-07-29T20:49:23.221Z,7.70
2022-07-29T20:51:53.909Z,7.68
2022-07-29T20:54:23.151Z,8.75
2022-07-29T20:56:51.991Z,8.23
2022-07-29T20:59:21.060Z,7.80
2022-07-29T21:01:49.945Z,8.05
2022-07-29T21:04:20.321Z,8.70
2022-07-29T21:06:49.357Z,8.00
2022-07-29T21:09:20.051Z,7.60
2022-07-29T21:11:48.918Z,7.60
